sensor_id;sensor_type;location;lat;lon;timestamp;pressure;altitude;pressure_sealevel;temperature;humidity
74435;BME280;62867;52.038;29.256;2022-10-30T00:03:58;1019.4;;;14.2;69.8
74435;BME280;62867;52.038;29.256;2022-10-30T00:08:50;1019.4;;;14.1;69.6
74435;BME280;62867;52.038;29.256;2022-10-30T00:13:54;1019.4;;;14.1;69.5
74435;BME280;62867;52.038;29.256;2022-10-30T00:18:50;1019.3;;;14.1;69.4
74435;BME280;62867;52.038;29.256;2022-10-30T00:24:12;1019.4;;;14.1;69.4
74435;BME280;62867;52.038;29.256;2022-10-30T00:29:12;1019.5;;;14.1;69.6
74435;BME280;62867;52.038;29.256;2022-10-30T00:33:50;1019.7;;;14.1;69.4
74435;BME280;62867;52.038;29.256;2022-10-30T00:39:02;1019.7;;;14.2;69.1
74435;BME280;62867;52.038;29.256;2022-10-30T00:43:54;1019.7;;;14.2;69
74435;BME280;62867;52.038;29.256;2022-10-30T00:49:01;1019.6;;;14.2;68.8
74435;BME280;62867;52.038;29.256;2022-10-30T00:53:50;1019.7;;;14.2;68.6
74435;BME280;62867;52.038;29.256;2022-10-30T00:58:59;1019.6;;;14.2;68.6
74435;BME280;62867;52.038;29.256;2022-10-30T01:03:51;1019.6;;;14.1;68.2
74435;BME280;62867;52.038;29.256;2022-10-30T01:09:06;1019.7;;;14;68.6
74435;BME280;62867;52.038;29.256;2022-10-30T01:14:07;1019.7;;;14;68.6
74435;BME280;62867;52.038;29.256;2022-10-30T01:18:51;1019.8;;;14.1;68.7
74435;BME280;62867;52.038;29.256;2022-10-30T01:24:02;1019.9;;;14.1;68.7
74435;BME280;62867;52.038;29.256;2022-10-30T01:28:58;1019.8;;;14.2;68
74435;BME280;62867;52.038;29.256;2022-10-30T01:33:57;1019.9;;;14.2;67.9
74435;BME280;62867;52.038;29.256;2022-10-30T01:38:55;1020;;;14.2;67.4
74435;BME280;62867;52.038;29.256;2022-10-30T01:43:55;1020;;;14.2;67.4
74435;BME280;62867;52.038;29.256;2022-10-30T01:48:57;1020.1;;;14.2;66.7
74435;BME280;62867;52.038;29.256;2022-10-30T01:54:07;1020.2;;;14.1;65.5
74435;BME280;62867;52.038;29.256;2022-10-30T01:58:57;1020.2;;;14.1;64.4
74435;BME280;62867;52.038;29.256;2022-10-30T02:04:16;1020.3;;;14;64.4
74435;BME280;62867;52.038;29.256;2022-10-30T02:09:06;1020.3;;;14;63.5
74435;BME280;62867;52.038;29.256;2022-10-30T02:13:54;1020.3;;;14;63.3
74435;BME280;62867;52.038;29.256;2022-10-30T02:19:02;1020.3;;;14;63.8
74435;BME280;62867;52.038;29.256;2022-10-30T02:23:58;1020.3;;;14;63.5
74435;BME280;62867;52.038;29.256;2022-10-30T02:29:12;1020.3;;;14;64
74435;BME280;62867;52.038;29.256;2022-10-30T02:34:06;1020.3;;;14;64.3
74435;BME280;62867;52.038;29.256;2022-10-30T02:39:04;1020.3;;;14;64.2
74435;BME280;62867;52.038;29.256;2022-10-30T02:44:02;1020.2;;;14;64
74435;BME280;62867;52.038;29.256;2022-10-30T02:49:06;1020.1;;;14;64.2
74435;BME280;62867;52.038;29.256;2022-10-30T02:54:16;1020.1;;;14;64.4
74435;BME280;62867;52.038;29.256;2022-10-30T02:58:54;1020.2;;;14;63.3
74435;BME280;62867;52.038;29.256;2022-10-30T03:03:54;1020.2;;;14;63.8
74435;BME280;62867;52.038;29.256;2022-10-30T03:09:04;1020.2;;;14;63.3
74435;BME280;62867;52.038;29.256;2022-10-30T03:13:54;1020.2;;;13.9;62.5
74435;BME280;62867;52.038;29.256;2022-10-30T03:18:54;1020.2;;;13.9;62.8
74435;BME280;62867;52.038;29.256;2022-10-30T03:23:54;1020.3;;;13.9;63.4
74435;BME280;62867;52.038;29.256;2022-10-30T03:29:02;1020.4;;;14;64
74435;BME280;62867;52.038;29.256;2022-10-30T03:33:54;1020.4;;;14;64
74435;BME280;62867;52.038;29.256;2022-10-30T03:39:08;1020.4;;;14;64.3
74435;BME280;62867;52.038;29.256;2022-10-30T03:44:12;1020.4;;;14;64.1
74435;BME280;62867;52.038;29.256;2022-10-30T03:49:06;1020.4;;;14;63.7
74435;BME280;62867;52.038;29.256;2022-10-30T03:53:54;1020.3;;;14.1;63.7
74435;BME280;62867;52.038;29.256;2022-10-30T03:59:02;1020.3;;;14;63.2
74435;BME280;62867;52.038;29.256;2022-10-30T04:04:12;1020.3;;;14;63.6
74435;BME280;62867;52.038;29.256;2022-10-30T04:08:54;1020.3;;;14;63.3
74435;BME280;62867;52.038;29.256;2022-10-30T04:14:18;1020.3;;;13.9;64.6
74435;BME280;62867;52.038;29.256;2022-10-30T04:19:08;1020.3;;;13.9;64.3
74435;BME280;62867;52.038;29.256;2022-10-30T04:24:02;1020.4;;;13.9;64.6
74435;BME280;62867;52.038;29.256;2022-10-30T04:29:00;1020.3;;;14;64.2
74435;BME280;62867;52.038;29.256;2022-10-30T04:33:54;1020.4;;;14;64.7
74435;BME280;62867;52.038;29.256;2022-10-30T04:39:04;1020.3;;;14;64.2
74435;BME280;62867;52.038;29.256;2022-10-30T04:43:54;1020.4;;;14;64.3
74435;BME280;62867;52.038;29.256;2022-10-30T04:48:54;1020.4;;;14;64.2
74435;BME280;62867;52.038;29.256;2022-10-30T04:53:58;1020.4;;;14;64
74435;BME280;62867;52.038;29.256;2022-10-30T04:59:06;1020.4;;;13.9;64.5
74435;BME280;62867;52.038;29.256;2022-10-30T05:03:54;1020.5;;;13.9;64.5
74435;BME280;62867;52.038;29.256;2022-10-30T05:09:06;1020.6;;;13.9;64.2
74435;BME280;62867;52.038;29.256;2022-10-30T05:13:54;1020.6;;;13.9;64.8
74435;BME280;62867;52.038;29.256;2022-10-30T05:19:10;1020.6;;;13.9;64.3
74435;BME280;62867;52.038;29.256;2022-10-30T05:23:54;1020.6;;;13.9;64.6
74435;BME280;62867;52.038;29.256;2022-10-30T05:28:54;1020.7;;;14;65
74435;BME280;62867;52.038;29.256;2022-10-30T05:34:02;1020.8;;;14;64.1
74435;BME280;62867;52.038;29.256;2022-10-30T05:39:02;1020.8;;;14;64.4
74435;BME280;62867;52.038;29.256;2022-10-30T05:43:58;1020.8;;;14;64.7
74435;BME280;62867;52.038;29.256;2022-10-30T05:48:54;1020.8;;;14.1;64.6
74435;BME280;62867;52.038;29.256;2022-10-30T05:54:06;1020.8;;;14.1;64.9
74435;BME280;62867;52.038;29.256;2022-10-30T05:58:54;1020.8;;;14.2;64
74435;BME280;62867;52.038;29.256;2022-10-30T06:04:10;1020.9;;;14.2;63.6
74435;BME280;62867;52.038;29.256;2022-10-30T06:08:58;1020.9;;;14.2;63.7
74435;BME280;62867;52.038;29.256;2022-10-30T06:14:06;1020.9;;;14.2;63.6
74435;BME280;62867;52.038;29.256;2022-10-30T06:18:54;1021;;;14.2;63.6
74435;BME280;62867;52.038;29.256;2022-10-30T06:23:54;1021;;;14.3;64.2
74435;BME280;62867;52.038;29.256;2022-10-30T06:28:54;1020.9;;;14.3;63.7
74435;BME280;62867;52.038;29.256;2022-10-30T06:33:54;1020.9;;;14.4;63.8
74435;BME280;62867;52.038;29.256;2022-10-30T06:39:16;1020.9;;;14.5;63.7
74435;BME280;62867;52.038;29.256;2022-10-30T06:44:06;1020.9;;;14.5;63.6
74435;BME280;62867;52.038;29.256;2022-10-30T06:48:54;1020.9;;;14.6;63.5
74435;BME280;62867;52.038;29.256;2022-10-30T06:54:06;1020.9;;;14.7;63.2
74435;BME280;62867;52.038;29.256;2022-10-30T06:59:08;1020.9;;;14.8;62.8
74435;BME280;62867;52.038;29.256;2022-10-30T07:03:54;1020.9;;;14.8;62.4
74435;BME280;62867;52.038;29.256;2022-10-30T07:09:04;1021;;;14.8;62.1
74435;BME280;62867;52.038;29.256;2022-10-30T07:13:54;1021;;;14.9;62.5
74435;BME280;62867;52.038;29.256;2022-10-30T07:18:54;1021;;;15;62.3
74435;BME280;62867;52.038;29.256;2022-10-30T07:23:58;1021;;;15.1;62
74435;BME280;62867;52.038;29.256;2022-10-30T07:28:58;1021;;;15.2;61.9
74435;BME280;62867;52.038;29.256;2022-10-30T07:34:06;1021;;;15.3;61.7
74435;BME280;62867;52.038;29.256;2022-10-30T07:38:54;1021;;;15.4;61.4
74435;BME280;62867;52.038;29.256;2022-10-30T07:44:38;1021;;;15.5;61.2
74435;BME280;62867;52.038;29.256;2022-10-30T07:48:54;1021;;;15.6;61
74435;BME280;62867;52.038;29.256;2022-10-30T07:53:54;1020.9;;;15.7;60.8
74435;BME280;62867;52.038;29.256;2022-10-30T07:58:54;1020.9;;;15.8;60.3
74435;BME280;62867;52.038;29.256;2022-10-30T08:04:24;1020.9;;;15.8;59.9
74435;BME280;62867;52.038;29.256;2022-10-30T08:08:54;1020.9;;;15.8;60.1
74435;BME280;62867;52.038;29.256;2022-10-30T08:13:58;1020.9;;;15.9;59.6
74435;BME280;62867;52.038;29.256;2022-10-30T08:18:54;1020.9;;;16;59.5
74435;BME280;62867;52.038;29.256;2022-10-30T08:24:10;1020.9;;;16;59.1
74435;BME280;62867;52.038;29.256;2022-10-30T08:29:06;1020.9;;;16.1;58.7
74435;BME280;62867;52.038;29.256;2022-10-30T08:33:54;1020.8;;;16.2;59
74435;BME280;62867;52.038;29.256;2022-10-30T08:38:54;1020.9;;;16.1;59.5
74435;BME280;62867;52.038;29.256;2022-10-30T08:44:14;1020.8;;;16.1;59.3
74435;BME280;62867;52.038;29.256;2022-10-30T08:48:54;1020.7;;;16.2;58.7
74435;BME280;62867;52.038;29.256;2022-10-30T08:54:07;1020.7;;;16.3;58.7
74435;BME280;62867;52.038;29.256;2022-10-30T08:58:54;1020.7;;;16.3;58.1
74435;BME280;62867;52.038;29.256;2022-10-30T09:04:00;1020.7;;;16.5;57.4
74435;BME280;62867;52.038;29.256;2022-10-30T09:09:06;1020.7;;;16.6;56.7
74435;BME280;62867;52.038;29.256;2022-10-30T09:13:54;1020.7;;;16.6;56.8
74435;BME280;62867;52.038;29.256;2022-10-30T09:19:06;1020.6;;;16.7;56.5
74435;BME280;62867;52.038;29.256;2022-10-30T09:24:02;1020.6;;;16.8;55.5
74435;BME280;62867;52.038;29.256;2022-10-30T09:28:54;1020.6;;;17;55.4
74435;BME280;62867;52.038;29.256;2022-10-30T09:33:54;1020.5;;;17.1;54.4
74435;BME280;62867;52.038;29.256;2022-10-30T09:38:54;1020.5;;;17.3;54.2
74435;BME280;62867;52.038;29.256;2022-10-30T09:44:21;1020.5;;;17.4;53.7
74435;BME280;62867;52.038;29.256;2022-10-30T09:48:58;1020.5;;;17.6;52.9
74435;BME280;62867;52.038;29.256;2022-10-30T09:53:57;1020.4;;;17.7;52.7
74435;BME280;62867;52.038;29.256;2022-10-30T09:59:07;1020.4;;;17.8;51.6
74435;BME280;62867;52.038;29.256;2022-10-30T10:03:56;1020.3;;;17.9;51.7
74435;BME280;62867;52.038;29.256;2022-10-30T10:08:55;1020.3;;;18.1;50.7
74435;BME280;62867;52.038;29.256;2022-10-30T10:13:55;1020.3;;;18.1;51.1
74435;BME280;62867;52.038;29.256;2022-10-30T10:19:13;1020.4;;;18;50.1
74435;BME280;62867;52.038;29.256;2022-10-30T10:24:08;1020.4;;;18;49.5
74435;BME280;62867;52.038;29.256;2022-10-30T10:29:11;1020.4;;;17.8;50.3
74435;BME280;62867;52.038;29.256;2022-10-30T10:33:57;1020.4;;;17.7;51.1
74435;BME280;62867;52.038;29.256;2022-10-30T10:39:05;1020.4;;;17.6;51.3
74435;BME280;62867;52.038;29.256;2022-10-30T10:43:57;1020.4;;;17.6;51.5
74435;BME280;62867;52.038;29.256;2022-10-30T10:48:57;1020.4;;;17.6;51.8
74435;BME280;62867;52.038;29.256;2022-10-30T10:53:55;1020.4;;;17.6;51.9
74435;BME280;62867;52.038;29.256;2022-10-30T10:59:12;1020.5;;;17.5;52
74435;BME280;62867;52.038;29.256;2022-10-30T11:03:55;1020.4;;;17.3;51.4
74435;BME280;62867;52.038;29.256;2022-10-30T11:08:57;1020.3;;;17.3;51.1
74435;BME280;62867;52.038;29.256;2022-10-30T11:13:54;1020.2;;;17.3;51.1
74435;BME280;62867;52.038;29.256;2022-10-30T11:19:07;1020.2;;;17.4;51.2
74435;BME280;62867;52.038;29.256;2022-10-30T11:24:02;1020.1;;;17.4;52
74435;BME280;62867;52.038;29.256;2022-10-30T11:29:04;1020;;;17.4;51.5
74435;BME280;62867;52.038;29.256;2022-10-30T11:33:54;1020.1;;;17.5;51.4
74435;BME280;62867;52.038;29.256;2022-10-30T11:38:54;1020.1;;;17.6;51.1
74435;BME280;62867;52.038;29.256;2022-10-30T11:43:54;1020;;;17.8;51.5
74435;BME280;62867;52.038;29.256;2022-10-30T11:49:08;1020;;;17.8;51.7
74435;BME280;62867;52.038;29.256;2022-10-30T11:54:02;1020;;;17.9;51.3
74435;BME280;62867;52.038;29.256;2022-10-30T11:58:55;1020;;;18;50.9
74435;BME280;62867;52.038;29.256;2022-10-30T12:03:54;1020.1;;;17.9;50.6
74435;BME280;62867;52.038;29.256;2022-10-30T12:08:58;1020.2;;;17.8;51.5
74435;BME280;62867;52.038;29.256;2022-10-30T12:14:12;1020.3;;;17.6;51.2
74435;BME280;62867;52.038;29.256;2022-10-30T12:18:57;1020.2;;;17.4;51.8
74435;BME280;62867;52.038;29.256;2022-10-30T12:23:55;1020.2;;;17.7;51.2
74435;BME280;62867;52.038;29.256;2022-10-30T12:29:10;1020.1;;;18;50.1
74435;BME280;62867;52.038;29.256;2022-10-30T12:33:56;1020.2;;;18;50.3
74435;BME280;62867;52.038;29.256;2022-10-30T12:39:07;1020.1;;;18;50.5
74435;BME280;62867;52.038;29.256;2022-10-30T12:44:17;1020;;;17.8;51
74435;BME280;62867;52.038;29.256;2022-10-30T12:49:02;1019.9;;;17.6;51
74435;BME280;62867;52.038;29.256;2022-10-30T12:54:20;1019.9;;;17.3;51.4
74435;BME280;62867;52.038;29.256;2022-10-30T12:59:20;1019.8;;;17;52
74435;BME280;62867;52.038;29.256;2022-10-30T13:04:07;1019.8;;;16.6;53.1
74435;BME280;62867;52.038;29.256;2022-10-30T13:09:03;1019.8;;;16.3;53.5
74435;BME280;62867;52.038;29.256;2022-10-30T13:13:54;1019.9;;;16.1;54.6
74435;BME280;62867;52.038;29.256;2022-10-30T13:18:55;1019.9;;;16;55
74435;BME280;62867;52.038;29.256;2022-10-30T13:24:09;1020;;;16;54.8
74435;BME280;62867;52.038;29.256;2022-10-30T13:28:57;1019.9;;;15.9;54.5
74435;BME280;62867;52.038;29.256;2022-10-30T13:33:57;1019.9;;;15.8;55.3
74435;BME280;62867;52.038;29.256;2022-10-30T13:39:02;1020;;;15.6;56
74435;BME280;62867;52.038;29.256;2022-10-30T13:44:17;1019.9;;;15.4;56.2
74435;BME280;62867;52.038;29.256;2022-10-30T13:49:08;1020;;;15.2;56.7
74435;BME280;62867;52.038;29.256;2022-10-30T13:53:59;1020.1;;;15.1;57.1
74435;BME280;62867;52.038;29.256;2022-10-30T13:59:05;1020.1;;;14.9;57.4
74435;BME280;62867;52.038;29.256;2022-10-30T14:03:56;1020.1;;;14.9;57.4
74435;BME280;62867;52.038;29.256;2022-10-30T14:09:08;1020;;;14.8;58.6
74435;BME280;62867;52.038;29.256;2022-10-30T14:13:55;1019.9;;;14.6;58.4
74435;BME280;62867;52.038;29.256;2022-10-30T14:19:18;1019.8;;;14.5;59
74435;BME280;62867;52.038;29.256;2022-10-30T14:24:00;1019.8;;;14.3;59.5
74435;BME280;62867;52.038;29.256;2022-10-30T14:29:00;1019.7;;;14.2;59.3
74435;BME280;62867;52.038;29.256;2022-10-30T14:34:25;1019.7;;;14;59.7
74435;BME280;62867;52.038;29.256;2022-10-30T14:38:58;1019.8;;;13.8;60.3
74435;BME280;62867;52.038;29.256;2022-10-30T14:43:58;1019.8;;;13.7;60.5
74435;BME280;62867;52.038;29.256;2022-10-30T14:49:10;1019.9;;;13.6;60.5
74435;BME280;62867;52.038;29.256;2022-10-30T14:54:30;1019.8;;;13.4;61.2
74435;BME280;62867;52.038;29.256;2022-10-30T14:59:07;1019.8;;;13.3;61.4
74435;BME280;62867;52.038;29.256;2022-10-30T15:04:10;1019.8;;;13.1;62.5
74435;BME280;62867;52.038;29.256;2022-10-30T15:08:57;1019.9;;;13;62.5
74435;BME280;62867;52.038;29.256;2022-10-30T15:13:55;1019.9;;;12.8;63.3
74435;BME280;62867;52.038;29.256;2022-10-30T15:18:55;1019.9;;;12.7;63.4
74435;BME280;62867;52.038;29.256;2022-10-30T15:23:55;1019.9;;;12.6;63.5
74435;BME280;62867;52.038;29.256;2022-10-30T15:28:54;1019.8;;;12.5;63.9
74435;BME280;62867;52.038;29.256;2022-10-30T15:33:55;1019.8;;;12.5;64.3
74435;BME280;62867;52.038;29.256;2022-10-30T15:39:03;1019.8;;;12.4;64.4
74435;BME280;62867;52.038;29.256;2022-10-30T15:43:54;1019.8;;;12.4;63.9
74435;BME280;62867;52.038;29.256;2022-10-30T15:49:00;1019.9;;;12.4;64.3
74435;BME280;62867;52.038;29.256;2022-10-30T15:54:18;1019.8;;;12.3;65.2
74435;BME280;62867;52.038;29.256;2022-10-30T15:58:55;1019.8;;;12.2;65.3
74435;BME280;62867;52.038;29.256;2022-10-30T16:03:54;1019.7;;;12.1;65.2
74435;BME280;62867;52.038;29.256;2022-10-30T16:08:54;1019.7;;;12.1;65.4
74435;BME280;62867;52.038;29.256;2022-10-30T16:14:23;1019.7;;;12;65.7
74435;BME280;62867;52.038;29.256;2022-10-30T16:18:56;1019.7;;;12;66.6
74435;BME280;62867;52.038;29.256;2022-10-30T16:23:55;1019.7;;;12.1;66.2
74435;BME280;62867;52.038;29.256;2022-10-30T16:29:19;1019.7;;;12.2;66.3
74435;BME280;62867;52.038;29.256;2022-10-30T16:33:56;1019.7;;;12.3;65.9
74435;BME280;62867;52.038;29.256;2022-10-30T16:38:54;1019.7;;;12.4;66.1
74435;BME280;62867;52.038;29.256;2022-10-30T16:44:27;1019.8;;;12.5;65.8
74435;BME280;62867;52.038;29.256;2022-10-30T16:48:55;1019.8;;;12.6;65.9
74435;BME280;62867;52.038;29.256;2022-10-30T16:53:54;1019.8;;;12.6;65.7
74435;BME280;62867;52.038;29.256;2022-10-30T16:59:04;1019.8;;;12.6;66
74435;BME280;62867;52.038;29.256;2022-10-30T17:03:54;1019.8;;;12.7;65.7
74435;BME280;62867;52.038;29.256;2022-10-30T17:09:07;1019.8;;;12.7;65.7
74435;BME280;62867;52.038;29.256;2022-10-30T17:13:55;1019.7;;;12.7;65.4
74435;BME280;62867;52.038;29.256;2022-10-30T17:18:55;1019.7;;;12.6;65.5
74435;BME280;62867;52.038;29.256;2022-10-30T17:23:55;1019.8;;;12.6;65.5
74435;BME280;62867;52.038;29.256;2022-10-30T17:28:54;1019.8;;;12.5;65.5
74435;BME280;62867;52.038;29.256;2022-10-30T17:34:11;1019.8;;;12.5;65.7
74435;BME280;62867;52.038;29.256;2022-10-30T17:38:54;1019.8;;;12.4;65.7
74435;BME280;62867;52.038;29.256;2022-10-30T17:44:03;1019.9;;;12.4;66
74435;BME280;62867;52.038;29.256;2022-10-30T17:48:55;1019.9;;;12.4;66
74435;BME280;62867;52.038;29.256;2022-10-30T17:53:54;1019.8;;;12.3;66.3
74435;BME280;62867;52.038;29.256;2022-10-30T17:59:15;1019.8;;;12.4;66.4
74435;BME280;62867;52.038;29.256;2022-10-30T18:04:10;1019.8;;;12.3;66.5
74435;BME280;62867;52.038;29.256;2022-10-30T18:09:04;1019.8;;;12.4;66.7
74435;BME280;62867;52.038;29.256;2022-10-30T18:13:55;1019.7;;;12.4;66.7
74435;BME280;62867;52.038;29.256;2022-10-30T18:19:10;1019.7;;;12.3;66.7
74435;BME280;62867;52.038;29.256;2022-10-30T18:23:54;1019.7;;;12.4;66.9
74435;BME280;62867;52.038;29.256;2022-10-30T18:28:54;1019.7;;;12.4;66.6
74435;BME280;62867;52.038;29.256;2022-10-30T18:33:54;1019.7;;;12.4;66.9
74435;BME280;62867;52.038;29.256;2022-10-30T18:39:14;1019.6;;;12.3;66.9
74435;BME280;62867;52.038;29.256;2022-10-30T18:43:54;1019.5;;;12.3;67.1
74435;BME280;62867;52.038;29.256;2022-10-30T18:49:07;1019.5;;;12.3;67.3
74435;BME280;62867;52.038;29.256;2022-10-30T18:54:07;1019.5;;;12.3;67.2
74435;BME280;62867;52.038;29.256;2022-10-30T18:58:55;1019.5;;;12.3;67.3
74435;BME280;62867;52.038;29.256;2022-10-30T19:03:54;1019.4;;;12.2;67.2
74435;BME280;62867;52.038;29.256;2022-10-30T19:08:54;1019.4;;;12.2;67.2
74435;BME280;62867;52.038;29.256;2022-10-30T19:14:09;1019.4;;;12.2;67.3
74435;BME280;62867;52.038;29.256;2022-10-30T19:19:06;1019.3;;;12.1;67.2
74435;BME280;62867;52.038;29.256;2022-10-30T19:24:07;1019.4;;;12;67.5
74435;BME280;62867;52.038;29.256;2022-10-30T19:28:54;1019.4;;;11.9;67.8
74435;BME280;62867;52.038;29.256;2022-10-30T19:34:02;1019.4;;;11.8;68
74435;BME280;62867;52.038;29.256;2022-10-30T19:39:09;1019.5;;;11.7;68.2
74435;BME280;62867;52.038;29.256;2022-10-30T19:44:14;1019.5;;;11.7;68.1
74435;BME280;62867;52.038;29.256;2022-10-30T19:49:05;1019.5;;;11.6;68.4
74435;BME280;62867;52.038;29.256;2022-10-30T19:54:02;1019.5;;;11.6;68.4
74435;BME280;62867;52.038;29.256;2022-10-30T19:59:00;1019.5;;;11.6;68.5
74435;BME280;62867;52.038;29.256;2022-10-30T20:04:06;1019.5;;;11.6;68.6
74435;BME280;62867;52.038;29.256;2022-10-30T20:09:12;1019.5;;;11.6;68.7
74435;BME280;62867;52.038;29.256;2022-10-30T20:13:54;1019.5;;;11.6;68.7
74435;BME280;62867;52.038;29.256;2022-10-30T20:19:15;1019.5;;;11.5;69
74435;BME280;62867;52.038;29.256;2022-10-30T20:23:54;1019.5;;;11.5;69.3
74435;BME280;62867;52.038;29.256;2022-10-30T20:28:54;1019.5;;;11.5;69.1
74435;BME280;62867;52.038;29.256;2022-10-30T20:34:06;1019.5;;;11.4;69.2
74435;BME280;62867;52.038;29.256;2022-10-30T20:39:10;1019.5;;;11.4;69.7
74435;BME280;62867;52.038;29.256;2022-10-30T20:43:54;1019.5;;;11.5;70
74435;BME280;62867;52.038;29.256;2022-10-30T20:48:54;1019.5;;;11.6;69.9
74435;BME280;62867;52.038;29.256;2022-10-30T20:53:54;1019.5;;;11.7;69.8
74435;BME280;62867;52.038;29.256;2022-10-30T20:58:54;1019.5;;;11.7;69.7
74435;BME280;62867;52.038;29.256;2022-10-30T21:04:03;1019.5;;;11.7;69.6
74435;BME280;62867;52.038;29.256;2022-10-30T21:08:54;1019.4;;;11.7;69.6
74435;BME280;62867;52.038;29.256;2022-10-30T21:13:54;1019.4;;;11.7;69.5
74435;BME280;62867;52.038;29.256;2022-10-30T21:19:38;1019.4;;;11.7;69.8
74435;BME280;62867;52.038;29.256;2022-10-30T21:23:54;1019.3;;;11.7;69.7
74435;BME280;62867;52.038;29.256;2022-10-30T21:28:54;1019.3;;;11.7;70.1
74435;BME280;62867;52.038;29.256;2022-10-30T21:34:04;1019.3;;;11.7;69.9
74435;BME280;62867;52.038;29.256;2022-10-30T21:39:00;1019.3;;;11.7;69.9
74435;BME280;62867;52.038;29.256;2022-10-30T21:44:07;1019.3;;;11.7;69.7
74435;BME280;62867;52.038;29.256;2022-10-30T21:49:05;1019.3;;;11.8;69.7
74435;BME280;62867;52.038;29.256;2022-10-30T21:53:53;1019.4;;;11.8;69.5
74435;BME280;62867;52.038;29.256;2022-10-30T21:59:01;1019.4;;;11.9;69.4
74435;BME280;62867;52.038;29.256;2022-10-30T22:04:20;1019.5;;;11.9;69.2
74435;BME280;62867;52.038;29.256;2022-10-30T22:08:51;1019.5;;;11.8;69.1
74435;BME280;62867;52.038;29.256;2022-10-30T22:13:51;1019.6;;;11.7;69.1
74435;BME280;62867;52.038;29.256;2022-10-30T22:18:59;1019.6;;;11.7;68.9
74435;BME280;62867;52.038;29.256;2022-10-30T22:23:50;1019.6;;;11.6;69
74435;BME280;62867;52.038;29.256;2022-10-30T22:28:59;1019.7;;;11.5;68.9
74435;BME280;62867;52.038;29.256;2022-10-30T22:34:02;1019.7;;;11.4;69.2
74435;BME280;62867;52.038;29.256;2022-10-30T22:39:09;1019.7;;;11.4;69.3
74435;BME280;62867;52.038;29.256;2022-10-30T22:43:51;1019.8;;;11.4;68.9
74435;BME280;62867;52.038;29.256;2022-10-30T22:49:01;1019.9;;;11.3;68.9
74435;BME280;62867;52.038;29.256;2022-10-30T22:54:03;1019.9;;;11.3;68.8
74435;BME280;62867;52.038;29.256;2022-10-30T22:58:51;1019.8;;;11.2;68.6
74435;BME280;62867;52.038;29.256;2022-10-30T23:04:03;1019.8;;;11.2;68.7
74435;BME280;62867;52.038;29.256;2022-10-30T23:09:00;1019.9;;;11.1;68.4
74435;BME280;62867;52.038;29.256;2022-10-30T23:13:51;1019.9;;;11;68.3
74435;BME280;62867;52.038;29.256;2022-10-30T23:18:59;1020;;;11;68
74435;BME280;62867;52.038;29.256;2022-10-30T23:24:03;1020.1;;;11;67.5
74435;BME280;62867;52.038;29.256;2022-10-30T23:28:51;1020.1;;;11.2;67.3
74435;BME280;62867;52.038;29.256;2022-10-30T23:33:51;1020.2;;;11.3;66.4
74435;BME280;62867;52.038;29.256;2022-10-30T23:39:07;1020.2;;;11.4;65.8
74435;BME280;62867;52.038;29.256;2022-10-30T23:44:12;1020.2;;;11.5;65.7
74435;BME280;62867;52.038;29.256;2022-10-30T23:49:03;1020.3;;;11.5;65.3
74435;BME280;62867;52.038;29.256;2022-10-30T23:53:51;1020.4;;;11.6;65
74435;BME280;62867;52.038;29.256;2022-10-30T23:59:11;1020.5;;;11.6;64.8
